Time;durP1;ratioP1;P1;durP2;ratioP2;P2;SDS_P1;SDS_P2;PMS_P1;PMS_P2;Temp;Humidity;BMP_temperature;BMP_pressure;BME280_temperature;BME280_humidity;BME280_pressure;Samples;Min_cycle;Max_cycle;Signal;HPM_P1;HPM_P2
2022/04/04 00:01:45;;;;;;;;;;;2.60;99.90;;;;;;5084711;28;20459;-60
2022/04/04 00:04:11;;;;;;;;;;;2.60;99.90;;;;;;5075230;28;20007;-60
2022/04/04 00:06:37;;;;;;;;;;;2.60;99.90;;;;;;5077511;28;20500;-60
2022/04/04 00:09:02;;;;;;;;;;;2.80;99.90;;;;;;5096440;28;19927;-60
2022/04/04 00:11:29;;;;;;;;;;;2.60;99.90;;;;;;5095091;28;20412;-60
2022/04/04 00:13:55;;;;;;;;;;;2.70;99.90;;;;;;5096515;28;20019;-60
2022/04/04 00:16:21;;;;;;;;;;;2.70;99.90;;;;;;5095935;28;19924;-60
2022/04/04 00:18:46;;;;;;;;;;;2.70;99.90;;;;;;5095394;28;19932;-60
2022/04/04 00:21:12;;;;;;;;;;;2.80;99.90;;;;;;5094482;28;19924;-60
2022/04/04 00:23:38;;;;;;;;;;;2.90;99.90;;;;;;5090668;28;20023;-60
2022/04/04 00:26:04;;;;;;;;;;;2.80;99.90;;;;;;5091586;28;19986;-60
2022/04/04 00:28:31;;;;;;;;;;;2.80;99.90;;;;;;5094493;28;20011;-59
2022/04/04 00:30:56;;;;;;;;;;;2.80;99.90;;;;;;5095481;28;19928;-59
2022/04/04 00:33:22;;;;;;;;;;;2.80;99.90;;;;;;5093875;28;19965;-60
2022/04/04 00:35:47;;;;;;;;;;;2.90;99.90;;;;;;5095639;28;19925;-60
2022/04/04 00:38:14;;;;;;;;;;;2.90;99.90;;;;;;5095238;28;19931;-60
2022/04/04 00:40:40;;;;;;;;;;;2.90;99.90;;;;;;5095446;28;19920;-59
2022/04/04 00:43:06;;;;;;;;;;;2.90;99.90;;;;;;5094069;28;19930;-60
2022/04/04 00:45:31;;;;;;;;;;;2.90;99.90;;;;;;5095122;28;19919;-60
2022/04/04 00:47:57;;;;;;;;;;;2.90;99.90;;;;;;5093895;28;20089;-60
2022/04/04 00:50:22;;;;;;;;;;;2.80;99.90;;;;;;5095352;28;20347;-60
2022/04/04 00:52:48;;;;;;;;;;;2.80;99.90;;;;;;5093045;28;20455;-60
2022/04/04 00:55:14;;;;;;;;;;;2.80;99.90;;;;;;5086234;28;20019;-59
2022/04/04 00:57:40;;;;;;;;;;;3.10;99.90;;;;;;5085567;28;19923;-60
2022/04/04 01:00:09;;;;;;;;;;;2.80;99.90;;;;;;5084123;28;19925;-60
2022/04/04 01:02:35;;;;;;;;;;;2.90;99.90;;;;;;5086112;28;19963;-60
2022/04/04 01:05:00;;;;;;;;;;;2.90;99.90;;;;;;5084106;28;19994;-60
2022/04/04 01:07:26;;;;;;;;;;;3.00;99.90;;;;;;5082690;28;20015;-60
2022/04/04 01:09:52;;;;;;;;;;;3.00;99.90;;;;;;5090941;28;19924;-60
2022/04/04 01:12:19;;;;;;;;;;;3.00;99.90;;;;;;5094965;28;19924;-60
2022/04/04 01:14:47;;;;;;;;;;;3.40;99.90;;;;;;5094357;28;19924;-60
2022/04/04 01:17:15;;;;;;;;;;;3.00;99.90;;;;;;5094426;28;19924;-59
2022/04/04 01:19:41;;;;;;;;;;;3.00;99.90;;;;;;5095003;28;19984;-60
2022/04/04 01:22:08;;;;;;;;;;;3.10;99.90;;;;;;5098898;28;20362;-60
2022/04/04 01:24:34;;;;;;;;;;;3.10;99.90;;;;;;5078721;27;19925;-60
2022/04/04 01:27:00;;;;;;;;;;;3.10;99.90;;;;;;5081362;28;20394;-60
2022/04/04 01:29:26;;;;;;;;;;;3.10;99.90;;;;;;5093527;28;19924;-60
2022/04/04 01:31:52;;;;;;;;;;;3.90;99.90;;;;;;5094508;28;19924;-60
2022/04/04 01:34:19;;;;;;;;;;;3.20;99.90;;;;;;5094113;28;19950;-60
2022/04/04 01:36:44;;;;;;;;;;;3.50;99.90;;;;;;5094462;28;19931;-59
2022/04/04 01:39:10;;;;;;;;;;;3.20;99.90;;;;;;5094004;28;19928;-60
2022/04/04 01:41:36;;;;;;;;;;;3.20;99.90;;;;;;5093862;28;19969;-60
2022/04/04 01:44:02;;;;;;;;;;;3.30;99.90;;;;;;5092922;28;19924;-60
2022/04/04 01:46:28;;;;;;;;;;;3.30;99.90;;;;;;5094124;28;20370;-60
2022/04/04 01:48:55;;;;;;;;;;;3.30;99.90;;;;;;5093490;28;20550;-60
2022/04/04 01:51:21;;;;;;;;;;;3.30;99.90;;;;;;5094404;28;19969;-60
2022/04/04 01:53:46;;;;;;;;;;;3.30;99.90;;;;;;5093998;28;19931;-60
2022/04/04 01:56:12;;;;;;;;;;;3.30;99.90;;;;;;5093617;28;20294;-59
2022/04/04 01:58:39;;;;;;;;;;;4.10;99.90;;;;;;5092942;28;19928;-60
2022/04/04 02:01:09;;;;;;;;;;;3.30;99.90;;;;;;5087772;28;19925;-60
2022/04/04 02:03:36;;;;;;;;;;;3.30;99.90;;;;;;5092136;28;19934;-60
2022/04/04 02:06:02;;;;;;;;;;;3.40;99.90;;;;;;5093842;28;19924;-60
2022/04/04 02:08:28;;;;;;;;;;;3.40;99.90;;;;;;5092318;28;19935;-59
2022/04/04 02:10:54;;;;;;;;;;;3.50;99.90;;;;;;5091814;28;20290;-60
2022/04/04 02:13:19;;;;;;;;;;;3.50;99.90;;;;;;5094059;28;20409;-59
2022/04/04 02:15:45;;;;;;;;;;;3.60;99.90;;;;;;5092232;28;19993;-60
2022/04/04 02:18:11;;;;;;;;;;;3.50;99.90;;;;;;5093307;28;20400;-60
2022/04/04 02:20:37;;;;;;;;;;;4.30;99.90;;;;;;5093278;28;19979;-60
2022/04/04 02:23:03;;;;;;;;;;;3.60;99.90;;;;;;5098280;28;19924;-60
2022/04/04 02:25:29;;;;;;;;;;;3.60;99.90;;;;;;5093084;28;20380;-59
2022/04/04 02:27:54;;;;;;;;;;;4.00;99.90;;;;;;5091925;28;19924;-60
2022/04/04 02:30:20;;;;;;;;;;;3.60;99.90;;;;;;5092786;28;19964;-60
2022/04/04 02:32:46;;;;;;;;;;;3.60;99.90;;;;;;5093436;28;19920;-60
2022/04/04 02:35:11;;;;;;;;;;;3.60;99.90;;;;;;5093682;28;19950;-60
2022/04/04 02:37:37;;;;;;;;;;;3.70;99.90;;;;;;5092651;28;19924;-60
2022/04/04 02:40:04;;;;;;;;;;;3.70;99.90;;;;;;5093017;28;19920;-60
2022/04/04 02:42:30;;;;;;;;;;;3.70;99.90;;;;;;5093670;28;19924;-59
2022/04/04 02:44:55;;;;;;;;;;;3.70;99.90;;;;;;5092877;28;20323;-60
2022/04/04 02:47:21;;;;;;;;;;;3.70;99.90;;;;;;5092901;28;20006;-60
2022/04/04 02:49:47;;;;;;;;;;;4.20;99.90;;;;;;5093720;28;20035;-60
2022/04/04 02:52:13;;;;;;;;;;;3.80;99.90;;;;;;5091320;28;20003;-60
2022/04/04 02:54:39;;;;;;;;;;;3.80;99.90;;;;;;5092890;28;19928;-60
2022/04/04 02:57:05;;;;;;;;;;;3.80;99.90;;;;;;5093380;28;19931;-60
2022/04/04 02:59:31;;;;;;;;;;;3.80;99.90;;;;;;5092324;28;19926;-60
2022/04/04 03:01:56;;;;;;;;;;;3.80;99.90;;;;;;5081519;28;19924;-60
2022/04/04 03:04:22;;;;;;;;;;;3.80;99.90;;;;;;5080853;28;19965;-60
2022/04/04 03:06:48;;;;;;;;;;;3.80;99.90;;;;;;5092432;28;20457;-60
2022/04/04 03:09:14;;;;;;;;;;;3.80;99.90;;;;;;5093411;28;20003;-60
2022/04/04 03:11:39;;;;;;;;;;;3.80;99.90;;;;;;5091797;28;19932;-60
2022/04/04 03:14:05;;;;;;;;;;;3.80;99.90;;;;;;5090834;28;20015;-60
2022/04/04 03:16:31;;;;;;;;;;;4.70;99.90;;;;;;5091583;28;20302;-60
2022/04/04 03:18:58;;;;;;;;;;;3.90;99.90;;;;;;5095164;28;19943;-60
2022/04/04 03:21:25;;;;;;;;;;;3.90;99.90;;;;;;5078216;28;19931;-59
2022/04/04 03:23:50;;;;;;;;;;;3.90;99.90;;;;;;5099562;28;19920;-60
2022/04/04 03:26:16;;;;;;;;;;;4.00;99.90;;;;;;5097317;28;20282;-59
2022/04/04 03:28:41;;;;;;;;;;;4.00;99.90;;;;;;5096146;28;19932;-60
2022/04/04 03:31:07;;;;;;;;;;;4.50;99.90;;;;;;5093243;28;20015;-60
2022/04/04 03:33:34;;;;;;;;;;;4.00;99.90;;;;;;5086410;28;20036;-60
2022/04/04 03:36:00;;;;;;;;;;;4.10;99.90;;;;;;5095322;28;20011;-60
2022/04/04 03:38:26;;;;;;;;;;;4.40;99.90;;;;;;5096597;28;19978;-60
2022/04/04 03:40:52;;;;;;;;;;;4.10;99.90;;;;;;5095927;28;19984;-60
2022/04/04 03:43:18;;;;;;;;;;;4.00;99.90;;;;;;5096716;28;19931;-60
2022/04/04 03:45:44;;;;;;;;;;;4.80;99.90;;;;;;5096749;28;20011;-60
2022/04/04 03:48:10;;;;;;;;;;;3.90;99.90;;;;;;5095964;28;20045;-60
2022/04/04 03:50:35;;;;;;;;;;;3.90;99.90;;;;;;5095378;28;19924;-60
2022/04/04 03:53:01;;;;;;;;;;;3.90;99.90;;;;;;5096513;28;19924;-60
2022/04/04 03:55:28;;;;;;;;;;;3.90;99.90;;;;;;5096129;28;19924;-60
2022/04/04 03:57:55;;;;;;;;;;;3.90;99.90;;;;;;5095944;28;19924;-60
2022/04/04 04:00:21;;;;;;;;;;;4.20;99.90;;;;;;5094854;28;20385;-60
2022/04/04 04:02:47;;;;;;;;;;;3.90;99.90;;;;;;5076901;28;19970;-60
2022/04/04 04:05:13;;;;;;;;;;;4.40;99.90;;;;;;5076285;28;19928;-60
2022/04/04 04:07:39;;;;;;;;;;;3.90;99.90;;;;;;5095831;28;19928;-60
2022/04/04 04:10:05;;;;;;;;;;;3.80;99.90;;;;;;5094298;28;19924;-60
2022/04/04 04:12:31;;;;;;;;;;;3.80;99.90;;;;;;5094743;28;19924;-60
2022/04/04 04:14:57;;;;;;;;;;;3.70;99.90;;;;;;5095790;28;20342;-60
2022/04/04 04:17:24;;;;;;;;;;;3.70;99.90;;;;;;5095341;28;20301;-60
2022/04/04 04:22:35;;;;;;;;;;;3.70;99.90;;;;;;5099897;28;19958;-60
2022/04/04 04:25:01;;;;;;;;;;;3.60;99.90;;;;;;5095066;28;19924;-61
2022/04/04 04:27:27;;;;;;;;;;;3.60;99.90;;;;;;5096096;28;19924;-61
2022/04/04 04:29:52;;;;;;;;;;;3.60;99.90;;;;;;5094609;28;19947;-61
2022/04/04 04:32:18;;;;;;;;;;;3.70;99.90;;;;;;5094168;28;20003;-61
2022/04/04 04:34:46;;;;;;;;;;;3.70;99.90;;;;;;5087927;28;19925;-61
2022/04/04 04:37:13;;;;;;;;;;;3.70;99.90;;;;;;5074724;28;20283;-61
2022/04/04 04:39:39;;;;;;;;;;;3.70;99.90;;;;;;5074291;28;20298;-61
2022/04/04 04:42:05;;;;;;;;;;;3.70;99.90;;;;;;5087754;28;19931;-61
2022/04/04 04:44:31;;;;;;;;;;;3.60;99.90;;;;;;5094933;28;20376;-60
2022/04/04 04:46:57;;;;;;;;;;;3.60;99.90;;;;;;5096054;28;19924;-61
2022/04/04 04:49:24;;;;;;;;;;;3.60;99.90;;;;;;5095526;28;19977;-61
2022/04/04 04:51:49;;;;;;;;;;;3.60;99.90;;;;;;5094145;28;19999;-61
2022/04/04 04:54:16;;;;;;;;;;;3.60;99.90;;;;;;5095419;28;20271;-61
2022/04/04 04:56:42;;;;;;;;;;;3.70;99.90;;;;;;5095590;28;19931;-60
2022/04/04 04:59:09;;;;;;;;;;;3.60;99.90;;;;;;5092558;28;19974;-61
2022/04/04 05:01:35;;;;;;;;;;;4.60;99.90;;;;;;5086546;28;20019;-60
2022/04/04 05:04:01;;;;;;;;;;;3.60;99.90;;;;;;5074988;28;20576;-61
2022/04/04 05:06:26;;;;;;;;;;;3.60;99.90;;;;;;5073943;28;20007;-61
2022/04/04 05:08:55;;;;;;;;;;;3.80;99.90;;;;;;5087698;28;19924;-61
2022/04/04 05:11:21;;;;;;;;;;;3.60;99.90;;;;;;5095277;28;20006;-61
2022/04/04 05:13:47;;;;;;;;;;;3.60;99.90;;;;;;5094361;28;19924;-61
2022/04/04 05:16:14;;;;;;;;;;;3.70;99.90;;;;;;5094837;28;19920;-61
2022/04/04 05:18:42;;;;;;;;;;;3.60;99.90;;;;;;5095208;28;19924;-60
2022/04/04 05:21:09;;;;;;;;;;;3.60;99.90;;;;;;5093929;28;20353;-61
2022/04/04 05:23:35;;;;;;;;;;;3.60;99.90;;;;;;5098104;28;19920;-61
2022/04/04 05:26:01;;;;;;;;;;;3.60;99.90;;;;;;5092549;28;20454;-61
2022/04/04 05:28:27;;;;;;;;;;;3.70;99.90;;;;;;5093046;28;20007;-61
2022/04/04 05:30:52;;;;;;;;;;;4.20;99.90;;;;;;5094785;28;19924;-61
2022/04/04 05:33:18;;;;;;;;;;;3.60;99.90;;;;;;5093944;28;20301;-61
2022/04/04 05:35:43;;;;;;;;;;;3.60;99.90;;;;;;5077920;28;19974;-61
2022/04/04 05:38:11;;;;;;;;;;;3.60;99.90;;;;;;5072919;28;19928;-61
2022/04/04 05:40:37;;;;;;;;;;;3.60;99.90;;;;;;5071614;28;19926;-61
2022/04/04 05:43:02;;;;;;;;;;;3.60;99.90;;;;;;5078133;28;20399;-61
2022/04/04 05:45:30;;;;;;;;;;;3.60;99.90;;;;;;5094476;28;20483;-61
2022/04/04 05:47:55;;;;;;;;;;;3.50;99.90;;;;;;5093642;28;19973;-61
2022/04/04 05:50:21;;;;;;;;;;;3.50;99.90;;;;;;5094016;28;19924;-61
2022/04/04 05:52:47;;;;;;;;;;;3.60;99.90;;;;;;5094169;28;19924;-61
2022/04/04 05:55:13;;;;;;;;;;;3.50;99.90;;;;;;5092165;28;19924;-61
2022/04/04 05:57:39;;;;;;;;;;;4.20;99.90;;;;;;5093027;28;20018;-61
2022/04/04 06:00:10;;;;;;;;;;;3.60;99.90;;;;;;5094002;28;20410;-61
2022/04/04 06:02:36;;;;;;;;;;;3.60;99.90;;;;;;5074329;28;19925;-61
2022/04/04 06:05:02;;;;;;;;;;;3.50;99.90;;;;;;5073709;28;19921;-61
2022/04/04 06:07:28;;;;;;;;;;;3.60;99.90;;;;;;5073924;28;20509;-61
2022/04/04 06:09:53;;;;;;;;;;;3.50;99.90;;;;;;5079324;28;19947;-61
2022/04/04 06:12:19;;;;;;;;;;;3.60;99.90;;;;;;5093723;28;19924;-61
2022/04/04 06:14:45;;;;;;;;;;;3.70;99.90;;;;;;5093619;28;19928;-61
2022/04/04 06:17:10;;;;;;;;;;;3.60;99.90;;;;;;5092247;28;19932;-60
2022/04/04 06:19:36;;;;;;;;;;;3.90;99.90;;;;;;5075052;28;20003;-61
2022/04/04 06:22:03;;;;;;;;;;;3.60;99.90;;;;;;5097364;28;19930;-61
2022/04/04 06:24:30;;;;;;;;;;;3.60;99.90;;;;;;5093775;28;19931;-61
2022/04/04 06:26:57;;;;;;;;;;;4.30;99.90;;;;;;5087654;28;19931;-61
2022/04/04 06:29:22;;;;;;;;;;;3.70;99.90;;;;;;5091715;28;19924;-61
2022/04/04 06:31:48;;;;;;;;;;;3.70;99.90;;;;;;5093327;28;20409;-60
2022/04/04 06:34:14;;;;;;;;;;;3.70;99.90;;;;;;5091677;28;19969;-60
2022/04/04 06:36:40;;;;;;;;;;;3.70;99.90;;;;;;5092494;28;19928;-60
2022/04/04 06:39:06;;;;;;;;;;;3.70;99.90;;;;;;5093517;28;20352;-60
2022/04/04 06:41:32;;;;;;;;;;;3.70;99.90;;;;;;5093543;28;19924;-61
2022/04/04 06:43:58;;;;;;;;;;;3.70;99.90;;;;;;5092540;28;19928;-61
2022/04/04 06:46:24;;;;;;;;;;;3.60;99.90;;;;;;5093089;28;19971;-60
2022/04/04 06:48:51;;;;;;;;;;;3.60;99.90;;;;;;5093276;28;19924;-61
2022/04/04 06:51:17;;;;;;;;;;;3.60;99.90;;;;;;5092256;28;20396;-61
2022/04/04 06:53:42;;;;;;;;;;;3.60;99.90;;;;;;5089245;28;19974;-61
2022/04/04 06:56:08;;;;;;;;;;;3.60;99.90;;;;;;5065821;28;19967;-61
2022/04/04 06:58:33;;;;;;;;;;;3.50;99.90;;;;;;5080620;28;19931;-60
2022/04/04 07:01:01;;;;;;;;;;;3.50;99.90;;;;;;5084752;28;19924;-59
2022/04/04 07:03:27;;;;;;;;;;;3.50;99.90;;;;;;5077305;28;20306;-60
2022/04/04 07:05:52;;;;;;;;;;;3.50;99.90;;;;;;5072129;28;19932;-59
2022/04/04 07:08:18;;;;;;;;;;;3.50;99.90;;;;;;5071773;28;19928;-59
2022/04/04 07:10:44;;;;;;;;;;;3.60;99.90;;;;;;5072927;28;20276;-60
2022/04/04 07:13:09;;;;;;;;;;;3.50;99.90;;;;;;5089363;28;19930;-59
2022/04/04 07:15:35;;;;;;;;;;;3.60;99.90;;;;;;5093353;28;19939;-59
2022/04/04 07:18:01;;;;;;;;;;;3.60;99.90;;;;;;5093188;28;19932;-59
2022/04/04 07:20:26;;;;;;;;;;;3.60;99.90;;;;;;5091829;28;19924;-59
2022/04/04 07:22:52;;;;;;;;;;;3.70;99.90;;;;;;5097954;28;19932;-59
2022/04/04 07:25:18;;;;;;;;;;;3.70;99.90;;;;;;5091780;28;19978;-59
2022/04/04 07:27:45;;;;;;;;;;;4.40;99.90;;;;;;5091955;28;19964;-59
2022/04/04 07:30:12;;;;;;;;;;;4.20;99.90;;;;;;5092894;28;20030;-61
2022/04/04 07:32:38;;;;;;;;;;;3.70;99.90;;;;;;5092379;28;20003;-60
2022/04/04 07:35:06;;;;;;;;;;;3.70;99.90;;;;;;5092758;28;19925;-61
2022/04/04 07:37:31;;;;;;;;;;;3.70;99.90;;;;;;5093082;28;19924;-61
2022/04/04 07:39:58;;;;;;;;;;;3.80;99.90;;;;;;5088730;28;19931;-58
2022/04/04 07:42:23;;;;;;;;;;;3.70;99.90;;;;;;5078802;28;19928;-58
2022/04/04 07:44:49;;;;;;;;;;;3.80;99.90;;;;;;5092397;28;19958;-58
2022/04/04 07:47:15;;;;;;;;;;;3.80;99.90;;;;;;5090148;28;19932;-58
2022/04/04 07:49:40;;;;;;;;;;;3.80;99.90;;;;;;5092354;28;20351;-58
2022/04/04 07:52:06;;;;;;;;;;;3.80;99.90;;;;;;5091444;28;19932;-58
2022/04/04 07:54:32;;;;;;;;;;;3.90;99.90;;;;;;5091101;28;20294;-58
2022/04/04 07:56:58;;;;;;;;;;;3.90;99.90;;;;;;5091796;28;19924;-58
2022/04/04 07:59:24;;;;;;;;;;;3.90;99.90;;;;;;5084346;28;19925;-58
2022/04/04 08:01:49;;;;;;;;;;;3.90;99.90;;;;;;5080447;28;20457;-58
2022/04/04 08:04:17;;;;;;;;;;;4.10;99.90;;;;;;5084849;28;20264;-58
2022/04/04 08:06:42;;;;;;;;;;;3.90;99.90;;;;;;5096588;28;19939;-58
2022/04/04 08:09:08;;;;;;;;;;;4.00;99.90;;;;;;5095714;28;19929;-58
2022/04/04 08:11:34;;;;;;;;;;;4.00;99.90;;;;;;5083775;28;19925;-58
2022/04/04 08:14:00;;;;;;;;;;;4.00;99.90;;;;;;5087130;28;19924;-58
2022/04/04 08:16:26;;;;;;;;;;;4.00;99.90;;;;;;5083691;28;19977;-58
2022/04/04 08:18:53;;;;;;;;;;;4.00;99.90;;;;;;5086503;28;19930;-59
2022/04/04 08:21:19;;;;;;;;;;;4.00;99.90;;;;;;5084952;28;19929;-58
2022/04/04 08:23:44;;;;;;;;;;;4.00;99.90;;;;;;5089691;28;20378;-58
2022/04/04 08:26:10;;;;;;;;;;;4.70;99.90;;;;;;5086533;28;19985;-58
2022/04/04 08:28:37;;;;;;;;;;;4.10;99.90;;;;;;5089864;28;20003;-59
2022/04/04 08:31:03;;;;;;;;;;;4.10;99.90;;;;;;5094753;28;19940;-61
2022/04/04 08:33:29;;;;;;;;;;;4.20;99.90;;;;;;5095907;28;19928;-62
2022/04/04 08:35:57;;;;;;;;;;;4.20;99.90;;;;;;5091879;28;20370;-59
2022/04/04 08:38:23;;;;;;;;;;;4.20;99.90;;;;;;5095992;28;19994;-59
2022/04/04 08:40:49;;;;;;;;;;;4.90;99.90;;;;;;5093644;28;19928;-59
2022/04/04 08:43:16;;;;;;;;;;;4.30;99.90;;;;;;5095240;28;19989;-59
2022/04/04 08:45:42;;;;;;;;;;;4.80;99.90;;;;;;5091157;28;19931;-59
2022/04/04 08:48:09;;;;;;;;;;;5.00;99.90;;;;;;5084115;28;19924;-58
2022/04/04 08:50:35;;;;;;;;;;;4.40;99.90;;;;;;5091272;28;19931;-58
2022/04/04 08:53:02;;;;;;;;;;;4.40;99.90;;;;;;5093046;28;19924;-59
2022/04/04 08:55:28;;;;;;;;;;;4.50;99.90;;;;;;5076222;28;19928;-59
2022/04/04 08:57:56;;;;;;;;;;;4.50;99.90;;;;;;5092943;28;19924;-60
2022/04/04 09:00:21;;;;;;;;;;;4.60;99.90;;;;;;5095391;28;19931;-59
2022/04/04 09:02:57;;;;;;;;;;;4.60;99.90;;;;;;5076044;28;19925;-60
2022/04/04 09:05:23;;;;;;;;;;;4.60;99.90;;;;;;5074531;28;19928;-60
2022/04/04 09:08:04;;;;;;;;;;;5.20;99.90;;;;;;5089618;28;19988;-60
2022/04/04 09:10:36;;;;;;;;;;;4.70;99.90;;;;;;5094725;28;20370;-60
2022/04/04 09:13:06;;;;;;;;;;;4.70;99.90;;;;;;5094236;28;19924;-60
2022/04/04 09:15:51;;;;;;;;;;;4.70;99.90;;;;;;5093475;28;20366;-59
2022/04/04 09:18:17;;;;;;;;;;;4.80;99.90;;;;;;5093822;28;20374;-60
2022/04/04 09:20:48;;;;;;;;;;;4.80;99.90;;;;;;5093421;28;19971;-60
2022/04/04 09:23:14;;;;;;;;;;;4.80;99.90;;;;;;5100501;28;19924;-60
2022/04/04 09:25:40;;;;;;;;;;;4.90;99.90;;;;;;5093476;28;19986;-60
2022/04/04 09:28:15;;;;;;;;;;;4.90;99.90;;;;;;5095150;28;20403;-60
2022/04/04 09:30:41;;;;;;;;;;;4.90;99.90;;;;;;5095092;28;19946;-60
2022/04/04 09:33:07;;;;;;;;;;;4.90;99.90;;;;;;5093539;28;20355;-60
2022/04/04 09:35:43;;;;;;;;;;;5.00;99.90;;;;;;5094735;28;19928;-59
2022/04/04 09:38:16;;;;;;;;;;;5.00;99.90;;;;;;5094965;28;19928;-60
2022/04/04 09:40:42;;;;;;;;;;;5.00;99.90;;;;;;5093542;28;20305;-60
2022/04/04 09:43:08;;;;;;;;;;;5.00;99.90;;;;;;5093681;28;19936;-60
2022/04/04 09:45:33;;;;;;;;;;;5.00;99.90;;;;;;5082301;28;19924;-60
2022/04/04 09:48:00;;;;;;;;;;;5.00;99.90;;;;;;5089868;28;19924;-60
2022/04/04 09:50:33;;;;;;;;;;;5.10;99.90;;;;;;5094177;28;20015;-60
2022/04/04 09:52:59;;;;;;;;;;;5.10;99.90;;;;;;5094615;28;19924;-60
2022/04/04 09:55:27;;;;;;;;;;;5.10;99.90;;;;;;5093569;28;19927;-60
2022/04/04 09:57:54;;;;;;;;;;;5.10;99.90;;;;;;5094362;28;19927;-59
2022/04/04 10:00:20;;;;;;;;;;;5.30;99.90;;;;;;5092786;28;19928;-61
2022/04/04 10:02:46;;;;;;;;;;;5.20;99.90;;;;;;5089785;28;19977;-60
2022/04/04 10:05:11;;;;;;;;;;;5.20;99.90;;;;;;5085116;28;20367;-59
2022/04/04 10:07:37;;;;;;;;;;;5.30;99.90;;;;;;5081465;28;19924;-59
2022/04/04 10:10:04;;;;;;;;;;;5.80;99.90;;;;;;5086843;28;19949;-59
2022/04/04 10:12:32;;;;;;;;;;;5.30;99.90;;;;;;5075572;28;20282;-59
2022/04/04 10:15:00;;;;;;;;;;;5.40;99.90;;;;;;5093388;28;20014;-60
2022/04/04 10:17:25;;;;;;;;;;;5.30;99.90;;;;;;5093557;28;19920;-60
2022/04/04 10:19:51;;;;;;;;;;;5.30;99.90;;;;;;5093856;28;19931;-60
2022/04/04 10:22:18;;;;;;;;;;;5.30;99.90;;;;;;5098594;28;19919;-60
2022/04/04 10:24:44;;;;;;;;;;;5.40;99.90;;;;;;5093406;28;19973;-60
2022/04/04 10:27:12;;;;;;;;;;;5.40;99.90;;;;;;5093107;28;20361;-60
2022/04/04 10:29:39;;;;;;;;;;;5.50;99.90;;;;;;5092578;28;19928;-60
2022/04/04 10:32:11;;;;;;;;;;;5.40;99.90;;;;;;5093496;28;19990;-59
2022/04/04 10:34:40;;;;;;;;;;;5.50;99.90;;;;;;5085916;28;20386;-60
2022/04/04 10:37:08;;;;;;;;;;;5.60;99.90;;;;;;5093055;28;20084;-60
2022/04/04 10:39:39;;;;;;;;;;;5.60;99.90;;;;;;5093058;28;20374;-60
2022/04/04 10:42:23;;;;;;;;;;;5.60;99.90;;;;;;5093262;28;20441;-60
2022/04/04 10:44:50;;;;;;;;;;;5.60;99.90;;;;;;5092605;28;19935;-60
2022/04/04 10:47:20;;;;;;;;;;;5.60;99.90;;;;;;5093188;28;19939;-60
2022/04/04 10:49:47;;;;;;;;;;;5.70;99.90;;;;;;5091411;28;19924;-60
2022/04/04 10:52:13;;;;;;;;;;;5.80;99.90;;;;;;5093183;28;19924;-60
2022/04/04 10:54:38;;;;;;;;;;;5.70;99.90;;;;;;5083779;28;20343;-59
2022/04/04 10:57:15;;;;;;;;;;;6.30;99.90;;;;;;5081762;28;19924;-60
2022/04/04 10:59:44;;;;;;;;;;;5.80;99.90;;;;;;5087589;28;20379;-59
2022/04/04 11:02:10;;;;;;;;;;;6.00;99.90;;;;;;5082579;28;19950;-60
2022/04/04 11:04:37;;;;;;;;;;;5.90;99.90;;;;;;5088656;28;19934;-60
2022/04/04 11:09:51;;;;;;;;;;;5.90;99.90;;;;;;5093197;28;20027;-60
2022/04/04 11:12:18;;;;;;;;;;;6.00;99.90;;;;;;5091821;28;20385;-60
2022/04/04 11:14:46;;;;;;;;;;;5.90;99.90;;;;;;5086239;28;19924;-60
2022/04/04 11:17:17;;;;;;;;;;;6.00;99.90;;;;;;5092836;28;19977;-60
2022/04/04 11:19:48;;;;;;;;;;;6.00;99.90;;;;;;5091822;28;19924;-60
2022/04/04 11:22:16;;;;;;;;;;;6.00;99.90;;;;;;5090998;28;19923;-60
2022/04/04 11:24:42;;;;;;;;;;;6.00;99.90;;;;;;5073380;28;19975;-60
2022/04/04 11:27:09;;;;;;;;;;;6.00;99.90;;;;;;5072960;28;20294;-60
2022/04/04 11:29:36;;;;;;;;;;;6.40;99.90;;;;;;5087576;28;19974;-59
2022/04/04 11:32:02;;;;;;;;;;;6.30;99.90;;;;;;5090823;28;19928;-59
2022/04/04 11:34:30;;;;;;;;;;;6.10;99.90;;;;;;5093125;28;19930;-59
2022/04/04 11:36:56;;;;;;;;;;;6.10;99.90;;;;;;5091719;28;19963;-59
2022/04/04 11:39:22;;;;;;;;;;;6.10;99.90;;;;;;5093974;28;19975;-59
2022/04/04 11:41:50;;;;;;;;;;;6.20;99.90;;;;;;5096899;28;19994;-60
2022/04/04 11:44:25;;;;;;;;;;;6.20;99.90;;;;;;5095903;28;19924;-60
2022/04/04 11:47:02;;;;;;;;;;;6.20;99.90;;;;;;5095681;28;20019;-60
2022/04/04 11:49:33;;;;;;;;;;;6.30;99.90;;;;;;5096852;28;19942;-60
2022/04/04 11:52:04;;;;;;;;;;;6.30;99.90;;;;;;5096772;28;20003;-60
2022/04/04 11:54:37;;;;;;;;;;;6.30;99.90;;;;;;5091874;28;20014;-60
2022/04/04 11:57:04;;;;;;;;;;;6.30;99.90;;;;;;5088451;28;19925;-60
2022/04/04 11:59:33;;;;;;;;;;;6.30;99.90;;;;;;5087401;28;19931;-60
2022/04/04 12:02:02;;;;;;;;;;;6.40;99.90;;;;;;5085575;28;19928;-60
2022/04/04 12:04:29;;;;;;;;;;;6.40;99.90;;;;;;5096036;28;19924;-60
2022/04/04 12:06:55;;;;;;;;;;;6.90;99.90;;;;;;5094095;28;19924;-60
2022/04/04 12:09:31;;;;;;;;;;;6.70;99.90;;;;;;5095659;28;19924;-60
2022/04/04 12:12:06;;;;;;;;;;;6.60;99.90;;;;;;5090030;28;19929;-61
2022/04/04 12:14:33;;;;;;;;;;;6.60;99.90;;;;;;5095605;28;20022;-61
2022/04/04 12:16:59;;;;;;;;;;;6.60;99.90;;;;;;5094624;28;19924;-61
2022/04/04 12:19:25;;;;;;;;;;;6.60;99.90;;;;;;5091418;28;20433;-61
2022/04/04 12:21:52;;;;;;;;;;;6.70;99.90;;;;;;5084454;28;19968;-60
2022/04/04 12:27:07;;;;;;;;;;;6.70;99.90;;;;;;5095919;28;19924;-60
2022/04/04 12:29:38;;;;;;;;;;;6.80;99.90;;;;;;5094688;28;19924;-61
2022/04/04 12:32:11;;;;;;;;;;;6.80;99.90;;;;;;5073796;28;19931;-61
2022/04/04 12:34:37;;;;;;;;;;;6.80;99.90;;;;;;5082084;28;19924;-61
2022/04/04 12:37:05;;;;;;;;;;;6.80;99.90;;;;;;5094620;28;19925;-61
2022/04/04 12:39:32;;;;;;;;;;;6.90;99.90;;;;;;5091509;28;20049;-61
2022/04/04 12:41:57;;;;;;;;;;;6.90;99.90;;;;;;5083398;28;20386;-61
2022/04/04 12:44:23;;;;;;;;;;;6.90;99.90;;;;;;5080027;28;20009;-61
2022/04/04 12:46:49;;;;;;;;;;;6.90;99.90;;;;;;5075162;28;20382;-61
2022/04/04 12:49:19;;;;;;;;;;;7.30;99.90;;;;;;5089442;28;19990;-60
2022/04/04 12:51:58;;;;;;;;;;;7.00;99.90;;;;;;5087902;28;20445;-61
2022/04/04 12:54:25;;;;;;;;;;;7.10;99.90;;;;;;5076241;28;19932;-61
2022/04/04 12:56:51;;;;;;;;;;;7.10;99.90;;;;;;5080729;28;20005;-61
2022/04/04 12:59:18;;;;;;;;;;;7.30;99.90;;;;;;5095585;28;19989;-61
2022/04/04 13:01:59;;;;;;;;;;;7.10;99.90;;;;;;5095013;28;19943;-61
2022/04/04 13:04:25;;;;;;;;;;;7.20;99.90;;;;;;5094732;28;19931;-61
2022/04/04 13:06:50;;;;;;;;;;;7.20;99.90;;;;;;5094723;28;19924;-61
2022/04/04 13:09:24;;;;;;;;;;;7.30;99.90;;;;;;5095192;28;19958;-61
2022/04/04 13:11:50;;;;;;;;;;;7.30;99.90;;;;;;5093076;28;20030;-62
2022/04/04 13:14:16;;;;;;;;;;;7.40;99.90;;;;;;5093118;28;19985;-61
2022/04/04 13:16:44;;;;;;;;;;;7.40;99.90;;;;;;5095221;28;19924;-62
2022/04/04 13:19:11;;;;;;;;;;;7.40;99.90;;;;;;5094378;28;19991;-61
2022/04/04 13:21:38;;;;;;;;;;;7.50;99.90;;;;;;5093942;28;19937;-62
2022/04/04 13:24:04;;;;;;;;;;;7.70;99.90;;;;;;5099075;28;19920;-62
2022/04/04 13:26:30;;;;;;;;;;;7.50;99.90;;;;;;5094071;28;19924;-61
2022/04/04 13:28:56;;;;;;;;;;;7.60;99.90;;;;;;5091383;28;19928;-62
2022/04/04 13:31:22;;;;;;;;;;;7.70;99.90;;;;;;5073382;28;20009;-62
2022/04/04 13:33:49;;;;;;;;;;;7.70;99.90;;;;;;5088386;28;19973;-62
2022/04/04 13:36:15;;;;;;;;;;;7.70;99.90;;;;;;5074187;28;19979;-62
2022/04/04 13:38:41;;;;;;;;;;;8.30;99.90;;;;;;5073316;28;19928;-62
2022/04/04 13:41:06;;;;;;;;;;;7.80;99.90;;;;;;5079361;28;19931;-62
2022/04/04 13:43:32;;;;;;;;;;;8.00;99.90;;;;;;5094645;28;19977;-62
2022/04/04 13:45:58;;;;;;;;;;;7.90;99.90;;;;;;5093661;28;19931;-62
2022/04/04 13:48:24;;;;;;;;;;;8.00;99.90;;;;;;5094480;28;19946;-62
2022/04/04 13:50:50;;;;;;;;;;;8.00;99.90;;;;;;5085325;28;20386;-61
2022/04/04 13:53:15;;;;;;;;;;;8.70;99.90;;;;;;5097644;28;19925;-62
2022/04/04 13:55:41;;;;;;;;;;;8.00;99.90;;;;;;5084838;28;20393;-62
2022/04/04 13:58:07;;;;;;;;;;;8.10;99.90;;;;;;5083259;28;19924;-63
2022/04/04 14:00:35;;;;;;;;;;;8.20;99.90;;;;;;5088660;28;19924;-62
2022/04/04 14:03:01;;;;;;;;;;;8.20;99.90;;;;;;5093566;28;20007;-62
2022/04/04 14:05:28;;;;;;;;;;;8.30;99.90;;;;;;5094388;28;19990;-62
2022/04/04 14:07:55;;;;;;;;;;;8.30;99.90;;;;;;5091493;28;19936;-62
2022/04/04 14:10:21;;;;;;;;;;;8.40;99.90;;;;;;5092744;28;19977;-62
2022/04/04 14:12:46;;;;;;;;;;;8.40;99.90;;;;;;5093893;28;19924;-62
2022/04/04 14:15:12;;;;;;;;;;;8.40;99.90;;;;;;5093072;28;19925;-62
2022/04/04 14:17:38;;;;;;;;;;;8.50;99.90;;;;;;5093890;28;19924;-62
2022/04/04 14:20:05;;;;;;;;;;;8.50;99.90;;;;;;5094007;28;19931;-63
2022/04/04 14:22:31;;;;;;;;;;;8.50;99.90;;;;;;5097357;28;19928;-62
2022/04/04 14:24:57;;;;;;;;;;;8.50;99.90;;;;;;5088863;28;20324;-62
2022/04/04 14:27:25;;;;;;;;;;;8.50;99.90;;;;;;5083661;28;19929;-62
2022/04/04 14:29:50;;;;;;;;;;;8.50;99.90;;;;;;5081346;28;20378;-62
2022/04/04 14:32:16;;;;;;;;;;;8.50;99.90;;;;;;5082670;28;19931;-61
2022/04/04 14:34:42;;;;;;;;;;;8.50;99.90;;;;;;5075584;28;19925;-61
2022/04/04 14:37:08;;;;;;;;;;;8.50;99.90;;;;;;5073328;28;19977;-61